createdAt,value
2023-01-31T00:00:10.031Z,29.29
2023-01-31T00:00:20.085Z,28.30
2023-01-31T00:00:30.152Z,29.94
2023-01-31T00:00:40.255Z,28.88
2023-01-31T00:00:50.319Z,26.23
2023-01-31T00:01:00.380Z,26.37
2023-01-31T00:01:10.492Z,25.88
2023-01-31T00:01:20.553Z,26.70
2023-01-31T00:01:30.609Z,27.01
2023-01-31T00:01:40.817Z,27.89
2023-01-31T00:01:50.902Z,26.26
2023-01-31T00:02:01.034Z,28.51
2023-01-31T00:02:11.109Z,29.06
2023-01-31T00:02:21.205Z,28.35
2023-01-31T00:02:31.269Z,26.95
2023-01-31T00:02:41.435Z,26.80
2023-01-31T00:02:51.399Z,27.95
2023-01-31T00:03:01.502Z,28.09
2023-01-31T00:03:11.688Z,28.29
2023-01-31T00:03:21.754Z,26.41
2023-01-31T00:03:31.856Z,25.97
2023-01-31T00:03:41.981Z,26.50
2023-01-31T00:03:52.020Z,26.70
2023-01-31T00:04:02.066Z,27.97
2023-01-31T00:04:12.254Z,27.10
2023-01-31T00:04:22.321Z,25.74
2023-01-31T00:04:32.384Z,25.00
2023-01-31T00:04:42.526Z,26.43
2023-01-31T00:04:52.589Z,27.28
2023-01-31T00:05:02.655Z,28.17
2023-01-31T00:05:12.806Z,26.81
2023-01-31T00:05:23.058Z,26.20
2023-01-31T00:05:32.910Z,26.99
2023-01-31T00:05:43.102Z,26.73
2023-01-31T00:05:53.148Z,26.35
2023-01-31T00:06:03.207Z,24.70
2023-01-31T00:06:13.441Z,27.71
2023-01-31T00:06:23.507Z,29.24
2023-01-31T00:06:33.566Z,26.56
2023-01-31T00:06:43.700Z,26.57
2023-01-31T00:06:53.789Z,27.57
2023-01-31T00:07:03.787Z,26.19
2023-01-31T00:07:13.930Z,28.04
2023-01-31T00:07:24.004Z,28.36
2023-01-31T00:07:34.068Z,28.10
2023-01-31T00:07:44.568Z,27.86
2023-01-31T00:07:54.312Z,25.35
2023-01-31T00:08:04.367Z,28.19
2023-01-31T00:08:14.560Z,27.28
2023-01-31T00:08:24.622Z,27.74
2023-01-31T00:08:35.071Z,28.85
2023-01-31T00:08:44.848Z,29.29
2023-01-31T00:08:54.915Z,28.49
2023-01-31T00:09:05.017Z,27.33
2023-01-31T00:09:15.103Z,27.18
2023-01-31T00:09:25.179Z,25.47
2023-01-31T00:09:35.252Z,26.71
2023-01-31T00:09:45.356Z,26.25
2023-01-31T00:09:55.416Z,26.53
2023-01-31T00:10:05.474Z,27.20
2023-01-31T00:10:15.589Z,27.60
2023-01-31T00:10:25.654Z,25.65
2023-01-31T00:10:36.189Z,27.21
2023-01-31T00:10:45.867Z,28.85
2023-01-31T00:10:55.963Z,27.92
2023-01-31T00:11:06.012Z,26.95
2023-01-31T00:11:16.102Z,26.16
2023-01-31T00:11:26.162Z,27.76
2023-01-31T00:11:36.370Z,27.64
2023-01-31T00:11:46.406Z,27.09
2023-01-31T00:11:56.506Z,26.83
2023-01-31T00:12:06.499Z,26.26
2023-01-31T00:12:16.698Z,26.21
2023-01-31T00:12:26.757Z,25.88
2023-01-31T00:12:37.195Z,25.99
2023-01-31T00:12:47.008Z,26.76
2023-01-31T00:12:57.077Z,26.15
2023-01-31T00:13:07.141Z,26.07
2023-01-31T00:13:17.246Z,25.12
2023-01-31T00:13:27.309Z,25.23
2023-01-31T00:13:37.390Z,26.08
2023-01-31T00:13:47.541Z,25.97
2023-01-31T00:13:57.598Z,25.68
2023-01-31T00:14:07.660Z,26.19
2023-01-31T00:14:17.819Z,26.61
2023-01-31T00:14:27.870Z,27.29
2023-01-31T00:14:38.467Z,26.95
2023-01-31T00:14:48.257Z,26.81
2023-01-31T00:14:58.322Z,25.74
2023-01-31T00:15:08.361Z,25.74
2023-01-31T00:15:18.771Z,25.75
2023-01-31T00:15:28.540Z,25.52
2023-01-31T00:15:39.027Z,24.60
2023-01-31T00:15:48.646Z,25.45
2023-01-31T00:15:58.731Z,25.22
2023-01-31T00:16:08.853Z,23.40
2023-01-31T00:16:18.850Z,24.56
2023-01-31T00:16:29.056Z,25.11
2023-01-31T00:16:39.275Z,25.51
2023-01-31T00:16:49.183Z,24.27
2023-01-31T00:16:59.322Z,24.96
2023-01-31T00:17:09.346Z,24.89
2023-01-31T00:17:19.419Z,24.54
2023-01-31T00:17:29.567Z,24.47
2023-01-31T00:17:40.100Z,25.16
2023-01-31T00:17:49.708Z,25.74
2023-01-31T00:17:59.761Z,25.75
2023-01-31T00:18:09.822Z,25.75
2023-01-31T00:18:19.905Z,25.19
2023-01-31T00:18:29.947Z,25.75
2023-01-31T00:18:40.139Z,24.64
2023-01-31T00:18:50.064Z,24.75
2023-01-31T00:19:00.123Z,25.83
2023-01-31T00:19:10.196Z,25.78
2023-01-31T00:19:20.273Z,24.60
2023-01-31T00:19:30.325Z,25.78
2023-01-31T00:19:40.383Z,25.76
2023-01-31T00:19:50.437Z,24.85
2023-01-31T00:20:00.500Z,22.37
2023-01-31T00:20:10.566Z,23.55
2023-01-31T00:20:20.640Z,21.50
2023-01-31T00:20:30.711Z,23.40
2023-01-31T00:20:40.768Z,22.23
2023-01-31T00:20:50.847Z,22.44
2023-01-31T00:21:00.914Z,22.87
2023-01-31T00:21:10.968Z,21.13
2023-01-31T00:21:21.026Z,25.13
2023-01-31T00:21:31.096Z,25.09
2023-01-31T00:21:41.192Z,23.49
2023-01-31T00:21:51.264Z,23.00
2023-01-31T00:22:01.357Z,21.94
2023-01-31T00:22:11.440Z,21.52
2023-01-31T00:22:21.500Z,22.91
2023-01-31T00:22:31.560Z,22.39
2023-01-31T00:22:41.749Z,23.32
2023-01-31T00:22:51.818Z,25.00
2023-01-31T00:23:01.870Z,25.24
2023-01-31T00:23:12.011Z,25.10
2023-01-31T00:23:22.070Z,25.31
2023-01-31T00:23:32.132Z,25.00
2023-01-31T00:23:42.318Z,27.18
2023-01-31T00:23:52.400Z,26.78
2023-01-31T00:24:02.464Z,25.43
2023-01-31T00:24:12.569Z,26.01
2023-01-31T00:24:22.614Z,26.36
2023-01-31T00:24:32.675Z,26.35
2023-01-31T00:24:42.930Z,26.16
2023-01-31T00:24:52.992Z,27.16
2023-01-31T00:25:03.062Z,27.56
2023-01-31T00:25:13.170Z,26.84
2023-01-31T00:25:23.236Z,29.13
2023-01-31T00:25:33.296Z,27.87
2023-01-31T00:25:43.418Z,27.50
2023-01-31T00:25:53.475Z,26.12
2023-01-31T00:26:03.530Z,25.54
2023-01-31T00:26:13.717Z,25.99
2023-01-31T00:26:23.853Z,24.72
2023-01-31T00:26:33.884Z,28.96
2023-01-31T00:26:44.073Z,29.36
2023-01-31T00:26:54.202Z,29.75
2023-01-31T00:27:04.141Z,30.93
2023-01-31T00:27:14.227Z,28.94
2023-01-31T00:27:24.278Z,28.78
2023-01-31T00:27:34.884Z,28.80
2023-01-31T00:27:44.452Z,27.71
2023-01-31T00:27:54.518Z,27.82
2023-01-31T00:28:04.575Z,29.16
2023-01-31T00:28:14.683Z,30.28
2023-01-31T00:28:24.740Z,28.58
2023-01-31T00:28:34.814Z,25.35
2023-01-31T00:28:44.991Z,26.50
2023-01-31T00:28:55.068Z,27.92
2023-01-31T00:29:05.149Z,28.16
2023-01-31T00:29:15.240Z,26.37
2023-01-31T00:29:25.299Z,28.22
2023-01-31T00:29:36.031Z,28.96
2023-01-31T00:29:45.583Z,28.60
2023-01-31T00:29:55.650Z,27.91
2023-01-31T00:30:05.714Z,26.81
2023-01-31T00:30:15.849Z,28.38
2023-01-31T00:30:25.922Z,29.03
2023-01-31T00:30:35.974Z,27.65
2023-01-31T00:30:46.074Z,25.98
2023-01-31T00:30:56.150Z,27.54
2023-01-31T00:31:06.235Z,27.90
2023-01-31T00:31:16.510Z,25.01
2023-01-31T00:31:26.530Z,27.60
2023-01-31T00:31:37.073Z,25.93
2023-01-31T00:31:46.694Z,25.93
2023-01-31T00:31:56.722Z,25.93
2023-01-31T00:32:06.824Z,25.93
2023-01-31T00:32:16.869Z,25.96
2023-01-31T00:32:26.959Z,25.96
2023-01-31T00:32:37.448Z,25.95
2023-01-31T00:32:46.924Z,26.02
2023-01-31T00:32:56.989Z,26.03
2023-01-31T00:33:07.045Z,25.96
2023-01-31T00:33:17.106Z,25.49
2023-01-31T00:33:27.184Z,23.55
2023-01-31T00:33:37.657Z,25.35
2023-01-31T00:33:47.327Z,25.67
2023-01-31T00:33:57.394Z,25.94
2023-01-31T00:34:07.460Z,25.24
2023-01-31T00:34:17.519Z,26.29
2023-01-31T00:34:27.607Z,23.63
2023-01-31T00:34:38.215Z,25.23
2023-01-31T00:34:47.739Z,23.38
2023-01-31T00:34:57.803Z,25.02
2023-01-31T00:35:07.919Z,26.23
2023-01-31T00:35:18.316Z,25.99
2023-01-31T00:35:28.029Z,24.63
2023-01-31T00:35:38.304Z,24.87
2023-01-31T00:35:48.292Z,24.87
2023-01-31T00:35:58.343Z,24.68
2023-01-31T00:36:08.461Z,26.43
2023-01-31T00:36:18.523Z,23.45
2023-01-31T00:36:28.583Z,25.12
2023-01-31T00:36:38.998Z,25.71
2023-01-31T00:36:48.814Z,25.79
2023-01-31T00:36:58.895Z,25.30
2023-01-31T00:37:08.999Z,25.00
2023-01-31T00:37:19.059Z,26.02
2023-01-31T00:37:29.124Z,28.31
2023-01-31T00:37:39.224Z,26.64
2023-01-31T00:37:49.285Z,26.61
2023-01-31T00:37:59.364Z,26.69
2023-01-31T00:38:09.472Z,28.55
2023-01-31T00:38:19.533Z,26.99
2023-01-31T00:38:29.598Z,27.18
2023-01-31T00:38:39.713Z,25.44
2023-01-31T00:38:49.781Z,27.25
2023-01-31T00:38:59.851Z,25.36
2023-01-31T00:39:09.980Z,26.70
2023-01-31T00:39:20.057Z,25.81
2023-01-31T00:39:30.117Z,25.17
2023-01-31T00:39:40.232Z,27.31
2023-01-31T00:39:50.288Z,25.93
2023-01-31T00:40:00.349Z,27.34
2023-01-31T00:40:10.504Z,27.22
2023-01-31T00:40:20.566Z,27.28
2023-01-31T00:40:30.629Z,26.12
2023-01-31T00:40:40.774Z,25.73
2023-01-31T00:40:50.830Z,26.08
2023-01-31T00:41:00.897Z,25.89
2023-01-31T00:41:11.093Z,27.83
2023-01-31T00:41:21.154Z,27.14
2023-01-31T00:41:31.206Z,25.98
2023-01-31T00:41:41.347Z,26.01
2023-01-31T00:41:51.409Z,26.61
2023-01-31T00:42:01.484Z,25.24
2023-01-31T00:42:11.662Z,26.52
2023-01-31T00:42:21.713Z,25.45
2023-01-31T00:42:31.775Z,25.00
2023-01-31T00:42:41.891Z,27.14
2023-01-31T00:42:51.962Z,25.87
2023-01-31T00:43:02.031Z,28.00
2023-01-31T00:43:12.134Z,27.55
2023-01-31T00:43:22.189Z,26.64
2023-01-31T00:43:32.343Z,27.16
2023-01-31T00:43:42.408Z,25.69
2023-01-31T00:43:52.478Z,26.89
2023-01-31T00:44:02.528Z,25.09
2023-01-31T00:44:12.729Z,25.00
2023-01-31T00:44:22.780Z,25.89
2023-01-31T00:44:32.841Z,25.79
2023-01-31T00:44:43.004Z,27.79
2023-01-31T00:44:53.069Z,28.73
2023-01-31T00:45:03.142Z,28.14
2023-01-31T00:45:13.275Z,26.57
2023-01-31T00:45:23.337Z,26.01
2023-01-31T00:45:33.412Z,25.62
2023-01-31T00:45:43.559Z,27.07
2023-01-31T00:45:53.604Z,25.00
2023-01-31T00:46:03.668Z,25.58
2023-01-31T00:46:13.916Z,25.00
2023-01-31T00:46:24.047Z,25.29
2023-01-31T00:46:34.652Z,25.39
2023-01-31T00:46:44.106Z,26.90
2023-01-31T00:46:54.197Z,26.98
2023-01-31T00:47:04.273Z,26.69
2023-01-31T00:47:14.275Z,25.00
2023-01-31T00:47:24.338Z,25.31
2023-01-31T00:47:34.744Z,25.14
2023-01-31T00:47:44.473Z,26.25
2023-01-31T00:47:54.559Z,26.79
2023-01-31T00:48:04.602Z,26.46
2023-01-31T00:48:14.656Z,27.76
2023-01-31T00:48:24.725Z,28.44
2023-01-31T00:48:35.413Z,28.36
2023-01-31T00:48:44.865Z,27.01
2023-01-31T00:48:54.890Z,27.82
2023-01-31T00:49:05.003Z,26.86
2023-01-31T00:49:15.033Z,25.80
2023-01-31T00:49:25.092Z,26.21
2023-01-31T00:49:35.690Z,26.93
2023-01-31T00:49:45.214Z,26.78
2023-01-31T00:49:55.362Z,28.44
2023-01-31T00:50:05.422Z,26.64
2023-01-31T00:50:15.485Z,25.80
2023-01-31T00:50:25.597Z,25.78
2023-01-31T00:50:36.033Z,25.67
2023-01-31T00:50:45.735Z,27.00
2023-01-31T00:50:55.846Z,27.60
2023-01-31T00:51:05.910Z,25.97
2023-01-31T00:51:15.969Z,26.46
2023-01-31T00:51:26.796Z,25.83
2023-01-31T00:51:36.621Z,25.30
2023-01-31T00:51:46.306Z,25.29
2023-01-31T00:51:56.414Z,25.00
2023-01-31T00:52:06.543Z,26.99
2023-01-31T00:52:16.597Z,26.78
2023-01-31T00:52:26.756Z,27.93
2023-01-31T00:52:37.058Z,27.05
2023-01-31T00:52:46.847Z,25.00
2023-01-31T00:52:57.012Z,27.06
2023-01-31T00:53:07.079Z,29.55
2023-01-31T00:53:17.139Z,28.34
2023-01-31T00:53:27.289Z,26.30
2023-01-31T00:53:38.324Z,26.34
2023-01-31T00:53:47.384Z,26.72
2023-01-31T00:53:57.489Z,25.93
2023-01-31T00:54:07.565Z,27.30
2023-01-31T00:54:17.627Z,26.35
2023-01-31T00:54:27.770Z,25.00
2023-01-31T00:54:38.012Z,27.55
2023-01-31T00:54:47.922Z,28.55
2023-01-31T00:54:58.071Z,27.89
2023-01-31T00:55:08.143Z,28.45
2023-01-31T00:55:18.579Z,30.61
2023-01-31T00:55:28.359Z,29.78
2023-01-31T00:55:38.419Z,28.63
2023-01-31T00:55:48.479Z,29.02
2023-01-31T00:55:58.622Z,28.29
2023-01-31T00:56:08.703Z,29.55
2023-01-31T00:56:18.771Z,29.79
2023-01-31T00:56:28.917Z,28.38
2023-01-31T00:56:38.972Z,29.85
2023-01-31T00:56:49.055Z,28.21
2023-01-31T00:56:59.197Z,25.00
2023-01-31T00:57:09.290Z,25.58
2023-01-31T00:57:19.339Z,26.62
2023-01-31T00:57:29.473Z,27.58
2023-01-31T00:57:39.533Z,26.25
2023-01-31T00:57:49.594Z,28.87
2023-01-31T00:57:59.715Z,28.64
2023-01-31T00:58:09.774Z,27.77
2023-01-31T00:58:19.834Z,26.32
2023-01-31T00:58:29.979Z,28.81
2023-01-31T00:58:40.048Z,29.45
2023-01-31T00:58:50.127Z,28.67
2023-01-31T00:59:00.235Z,28.02
2023-01-31T00:59:10.288Z,26.86
2023-01-31T00:59:20.351Z,25.18
2023-01-31T00:59:30.569Z,26.24
2023-01-31T00:59:40.619Z,26.21
2023-01-31T00:59:50.687Z,27.40
2023-01-31T01:00:00.786Z,25.93
2023-01-31T01:00:10.865Z,25.60
2023-01-31T01:00:20.916Z,25.91
2023-01-31T01:00:31.093Z,26.34
2023-01-31T01:00:41.156Z,26.07
2023-01-31T01:00:51.246Z,25.34
2023-01-31T01:01:01.388Z,26.67
2023-01-31T01:01:11.493Z,25.51
2023-01-31T01:01:21.484Z,25.50
2023-01-31T01:01:31.635Z,26.56
2023-01-31T01:01:41.724Z,25.57
2023-01-31T01:01:51.799Z,25.01
2023-01-31T01:02:02.010Z,26.87
2023-01-31T01:02:11.996Z,26.12
2023-01-31T01:02:22.012Z,26.00
2023-01-31T01:02:32.206Z,27.69
2023-01-31T01:02:42.260Z,30.43
2023-01-31T01:02:52.326Z,28.93
2023-01-31T01:03:02.432Z,28.15
2023-01-31T01:03:12.500Z,28.03
2023-01-31T01:03:22.573Z,28.16
2023-01-31T01:03:33.042Z,29.63
2023-01-31T01:03:42.754Z,29.92
2023-01-31T01:03:52.815Z,28.71
2023-01-31T01:04:02.924Z,27.32
2023-01-31T01:04:12.997Z,25.52
2023-01-31T01:04:23.066Z,25.00
2023-01-31T01:04:33.213Z,28.16
2023-01-31T01:04:43.277Z,26.41
2023-01-31T01:04:53.330Z,27.01
2023-01-31T01:05:03.475Z,30.16
2023-01-31T01:05:13.544Z,30.56
2023-01-31T01:05:23.612Z,30.85
2023-01-31T01:05:34.452Z,29.94
2023-01-31T01:05:43.834Z,31.28
2023-01-31T01:05:53.865Z,30.97
2023-01-31T01:06:04.014Z,30.30
2023-01-31T01:06:14.075Z,30.11
2023-01-31T01:06:24.144Z,26.79
2023-01-31T01:06:34.657Z,28.58
2023-01-31T01:06:44.336Z,29.07
2023-01-31T01:06:54.394Z,27.52
2023-01-31T01:07:04.545Z,28.63
2023-01-31T01:07:14.649Z,29.47
2023-01-31T01:07:24.661Z,26.50
2023-01-31T01:07:34.814Z,28.31
2023-01-31T01:07:44.867Z,29.89
2023-01-31T01:07:54.925Z,31.44
2023-01-31T01:08:05.080Z,30.21
2023-01-31T01:08:15.142Z,29.06
2023-01-31T01:08:25.214Z,29.31
2023-01-31T01:08:35.501Z,29.10
2023-01-31T01:08:45.418Z,29.60
2023-01-31T01:08:55.487Z,30.60
2023-01-31T01:09:05.636Z,27.72
2023-01-31T01:09:15.713Z,27.06
2023-01-31T01:09:25.765Z,29.64
2023-01-31T01:09:36.333Z,29.51
2023-01-31T01:09:45.977Z,27.44
2023-01-31T01:09:56.042Z,28.44
2023-01-31T01:10:06.199Z,27.20
2023-01-31T01:10:16.252Z,25.78
2023-01-31T01:10:26.313Z,28.17
2023-01-31T01:10:36.714Z,28.36
2023-01-31T01:10:46.486Z,26.44
2023-01-31T01:10:56.556Z,26.80
2023-01-31T01:11:06.719Z,25.44
2023-01-31T01:11:16.769Z,26.78
2023-01-31T01:11:26.880Z,26.65
2023-01-31T01:11:36.966Z,28.89
2023-01-31T01:11:47.044Z,28.54
2023-01-31T01:11:57.094Z,26.25
2023-01-31T01:12:07.239Z,26.14
2023-01-31T01:12:17.330Z,27.30
2023-01-31T01:12:27.411Z,27.06
2023-01-31T01:12:37.531Z,26.78
2023-01-31T01:12:47.585Z,28.05
2023-01-31T01:12:57.660Z,26.61
2023-01-31T01:13:08.808Z,29.20
2023-01-31T01:13:17.858Z,28.16
2023-01-31T01:13:27.913Z,28.13
2023-01-31T01:13:38.056Z,28.44
2023-01-31T01:13:48.141Z,27.64
2023-01-31T01:13:58.218Z,25.00
2023-01-31T01:14:08.344Z,26.27
2023-01-31T01:14:18.420Z,26.81
2023-01-31T01:14:28.490Z,25.88
2023-01-31T01:14:38.583Z,27.02
2023-01-31T01:14:48.642Z,25.19
2023-01-31T01:14:58.698Z,27.83
2023-01-31T01:15:08.844Z,29.70
2023-01-31T01:15:19.284Z,30.98
2023-01-31T01:15:28.976Z,29.33
2023-01-31T01:15:39.177Z,26.97
2023-01-31T01:15:49.162Z,26.91
2023-01-31T01:15:59.249Z,27.64
2023-01-31T01:16:09.406Z,27.05
2023-01-31T01:16:19.465Z,27.58
2023-01-31T01:16:29.515Z,27.08
2023-01-31T01:16:39.734Z,26.38
2023-01-31T01:16:49.731Z,27.71
2023-01-31T01:16:59.794Z,27.32
2023-01-31T01:17:09.902Z,27.04
2023-01-31T01:17:20.034Z,26.27
2023-01-31T01:17:30.013Z,26.89
2023-01-31T01:17:40.208Z,25.25
2023-01-31T01:17:50.271Z,25.00
2023-01-31T01:18:00.354Z,26.18
2023-01-31T01:18:10.452Z,25.92
2023-01-31T01:18:20.506Z,26.10
2023-01-31T01:18:30.567Z,27.54
2023-01-31T01:18:40.757Z,27.10
2023-01-31T01:18:50.839Z,28.52
2023-01-31T01:19:00.908Z,26.08
2023-01-31T01:19:11.014Z,27.52
2023-01-31T01:19:21.075Z,25.50
2023-01-31T01:19:31.171Z,27.01
2023-01-31T01:19:41.280Z,27.11
2023-01-31T01:19:51.351Z,27.06
2023-01-31T01:20:01.411Z,25.73
2023-01-31T01:20:11.525Z,28.34
2023-01-31T01:20:21.579Z,27.25
2023-01-31T01:20:31.924Z,26.93
2023-01-31T01:20:41.777Z,25.97
2023-01-31T01:20:51.845Z,25.57
2023-01-31T01:21:01.910Z,25.83
2023-01-31T01:21:12.078Z,27.71
2023-01-31T01:21:22.126Z,26.84
2023-01-31T01:21:32.419Z,26.89
2023-01-31T01:21:42.337Z,27.14
2023-01-31T01:21:52.404Z,27.52
2023-01-31T01:22:02.468Z,26.71
2023-01-31T01:22:12.617Z,26.54
2023-01-31T01:22:22.706Z,27.67
2023-01-31T01:22:33.210Z,26.27
2023-01-31T01:22:42.927Z,26.59
2023-01-31T01:22:52.973Z,28.91
2023-01-31T01:23:03.040Z,26.89
2023-01-31T01:23:13.190Z,26.03
2023-01-31T01:23:23.257Z,26.41
2023-01-31T01:23:33.314Z,25.91
2023-01-31T01:23:43.429Z,25.29
2023-01-31T01:23:53.486Z,25.00
2023-01-31T01:24:03.546Z,25.00
2023-01-31T01:24:13.741Z,26.17
2023-01-31T01:24:23.810Z,26.78
2023-01-31T01:24:34.285Z,26.18
2023-01-31T01:24:44.177Z,24.49
2023-01-31T01:24:54.241Z,27.32
2023-01-31T01:25:04.315Z,29.72
2023-01-31T01:25:14.400Z,27.07
2023-01-31T01:25:24.481Z,28.67
2023-01-31T01:25:34.946Z,25.00
2023-01-31T01:25:44.667Z,27.20
2023-01-31T01:25:54.725Z,28.28
2023-01-31T01:26:04.782Z,26.40
2023-01-31T01:26:15.065Z,27.92
2023-01-31T01:26:25.071Z,28.74
2023-01-31T01:26:35.243Z,28.00
2023-01-31T01:26:45.365Z,29.41
2023-01-31T01:26:55.397Z,28.55
2023-01-31T01:27:05.400Z,27.68
2023-01-31T01:27:15.547Z,28.03
2023-01-31T01:27:25.633Z,27.73
2023-01-31T01:27:35.990Z,28.40
2023-01-31T01:27:45.802Z,27.86
2023-01-31T01:27:55.878Z,27.18
2023-01-31T01:28:05.942Z,26.15
2023-01-31T01:28:16.039Z,27.24
2023-01-31T01:28:28.893Z,26.52
2023-01-31T01:28:36.599Z,27.44
2023-01-31T01:28:46.266Z,26.44
2023-01-31T01:28:56.328Z,26.76
2023-01-31T01:29:06.383Z,26.73
2023-01-31T01:29:16.437Z,25.45
2023-01-31T01:29:26.490Z,26.12
2023-01-31T01:29:36.567Z,27.42
2023-01-31T01:29:46.624Z,27.96
2023-01-31T01:29:56.684Z,27.97
2023-01-31T01:30:06.741Z,29.12
2023-01-31T01:30:16.812Z,29.22
2023-01-31T01:30:26.870Z,27.79
2023-01-31T01:30:36.926Z,27.32
2023-01-31T01:30:46.988Z,29.45
2023-01-31T01:30:57.079Z,27.87
2023-01-31T01:31:07.255Z,26.98
2023-01-31T01:31:17.273Z,26.86
2023-01-31T01:31:27.255Z,26.94
2023-01-31T01:31:37.351Z,27.27
2023-01-31T01:31:47.473Z,27.01
2023-01-31T01:31:57.545Z,27.60
2023-01-31T01:32:07.638Z,26.16
2023-01-31T01:32:17.624Z,26.64
2023-01-31T01:32:27.654Z,27.88
2023-01-31T01:32:37.797Z,25.60
2023-01-31T01:32:47.847Z,27.03
2023-01-31T01:32:57.915Z,28.37
2023-01-31T01:33:08.104Z,28.86
2023-01-31T01:33:18.178Z,29.29
2023-01-31T01:33:28.248Z,27.33
2023-01-31T01:33:38.347Z,28.02
2023-01-31T01:33:48.429Z,26.67
2023-01-31T01:33:58.485Z,26.97
2023-01-31T01:34:08.586Z,26.99
2023-01-31T01:34:18.648Z,26.34
2023-01-31T01:34:28.728Z,27.90
2023-01-31T01:34:38.906Z,25.58
2023-01-31T01:34:48.965Z,26.22
2023-01-31T01:34:59.012Z,26.50
2023-01-31T01:35:09.203Z,25.54
2023-01-31T01:35:19.531Z,25.70
2023-01-31T01:35:29.365Z,27.80
2023-01-31T01:35:39.431Z,27.77
2023-01-31T01:35:49.551Z,28.39
2023-01-31T01:35:59.567Z,27.33
2023-01-31T01:36:09.709Z,28.62
2023-01-31T01:36:19.771Z,30.02
2023-01-31T01:36:29.835Z,26.27
2023-01-31T01:36:40.045Z,28.31
2023-01-31T01:36:50.121Z,29.06
2023-01-31T01:37:00.176Z,28.37
2023-01-31T01:37:10.282Z,29.74
2023-01-31T01:37:20.371Z,28.94
2023-01-31T01:37:30.439Z,30.08
2023-01-31T01:37:40.543Z,28.64
2023-01-31T01:37:50.607Z,25.95
2023-01-31T01:38:00.696Z,26.67
2023-01-31T01:38:10.843Z,27.82
2023-01-31T01:38:20.898Z,26.85
2023-01-31T01:38:31.325Z,29.46
2023-01-31T01:38:41.129Z,29.39
2023-01-31T01:38:51.204Z,28.00
2023-01-31T01:39:01.251Z,28.41
2023-01-31T01:39:11.407Z,30.44
2023-01-31T01:39:21.465Z,26.79
2023-01-31T01:39:31.515Z,26.74
2023-01-31T01:39:41.679Z,29.46
2023-01-31T01:39:51.759Z,28.65
2023-01-31T01:40:01.810Z,27.82
2023-01-31T01:40:11.999Z,27.90
2023-01-31T01:40:22.058Z,28.91
2023-01-31T01:40:32.307Z,29.01
2023-01-31T01:40:42.239Z,29.08
2023-01-31T01:40:52.302Z,28.36
2023-01-31T01:41:02.385Z,27.31
2023-01-31T01:41:12.500Z,27.60
2023-01-31T01:41:22.540Z,26.12
2023-01-31T01:41:32.582Z,25.68
2023-01-31T01:41:42.778Z,26.10
2023-01-31T01:41:52.852Z,28.97
2023-01-31T01:42:02.914Z,28.60
2023-01-31T01:42:13.026Z,27.63
2023-01-31T01:42:23.083Z,26.10
2023-01-31T01:42:33.241Z,28.31
2023-01-31T01:42:43.296Z,25.00
2023-01-31T01:42:53.322Z,26.13
2023-01-31T01:43:03.405Z,26.13
2023-01-31T01:43:13.471Z,26.13
2023-01-31T01:43:23.528Z,26.13
2023-01-31T01:43:33.587Z,26.17
2023-01-31T01:43:43.661Z,26.16
2023-01-31T01:43:53.720Z,26.17
2023-01-31T01:44:03.784Z,26.13
2023-01-31T01:44:13.837Z,26.06
2023-01-31T01:44:23.900Z,26.16
2023-01-31T01:44:33.964Z,24.82
2023-01-31T01:44:44.069Z,26.34
2023-01-31T01:44:54.101Z,26.20
2023-01-31T01:45:04.196Z,25.49
2023-01-31T01:45:14.242Z,26.41
2023-01-31T01:45:24.613Z,26.30
2023-01-31T01:45:34.379Z,26.08
2023-01-31T01:45:44.445Z,26.22
2023-01-31T01:45:54.504Z,26.25
2023-01-31T01:46:04.639Z,24.11
2023-01-31T01:46:14.601Z,26.35
2023-01-31T01:46:24.710Z,26.43
2023-01-31T01:46:34.768Z,26.17
2023-01-31T01:46:44.844Z,26.59
2023-01-31T01:46:54.956Z,26.49
2023-01-31T01:47:05.013Z,25.26
2023-01-31T01:47:15.079Z,26.99
2023-01-31T01:47:25.248Z,24.24
2023-01-31T01:47:35.318Z,25.12
2023-01-31T01:47:45.378Z,22.79
2023-01-31T01:47:55.519Z,24.52
2023-01-31T01:48:05.585Z,26.23
2023-01-31T01:48:15.648Z,27.30
2023-01-31T01:48:25.770Z,26.57
2023-01-31T01:48:36.275Z,25.74
2023-01-31T01:48:45.871Z,25.00
2023-01-31T01:48:56.082Z,27.93
2023-01-31T01:49:06.146Z,29.33
2023-01-31T01:49:16.217Z,28.94
2023-01-31T01:49:26.323Z,29.49
2023-01-31T01:49:36.483Z,29.23
2023-01-31T01:49:46.436Z,27.81
2023-01-31T01:49:56.620Z,30.14
2023-01-31T01:50:06.687Z,31.09
2023-01-31T01:50:16.748Z,27.69
2023-01-31T01:50:27.139Z,29.28
2023-01-31T01:50:36.967Z,29.61
2023-01-31T01:50:47.029Z,30.66
2023-01-31T01:50:57.130Z,31.30
2023-01-31T01:51:07.184Z,27.40
2023-01-31T01:51:17.247Z,26.99
2023-01-31T01:51:27.451Z,27.73
2023-01-31T01:51:37.505Z,28.60
2023-01-31T01:51:47.554Z,26.80
2023-01-31T01:51:57.661Z,26.31
2023-01-31T01:52:07.718Z,28.92
2023-01-31T01:52:17.793Z,27.08
2023-01-31T01:52:28.419Z,25.99
2023-01-31T01:52:38.074Z,27.46
2023-01-31T01:52:48.150Z,28.42
2023-01-31T01:52:58.261Z,25.00
2023-01-31T01:53:08.317Z,26.87
2023-01-31T01:53:18.395Z,25.84
2023-01-31T01:53:28.614Z,28.35
2023-01-31T01:53:38.596Z,27.97
2023-01-31T01:53:48.662Z,30.98
2023-01-31T01:53:58.860Z,26.11
2023-01-31T01:54:08.915Z,27.52
2023-01-31T01:54:18.972Z,26.87
2023-01-31T01:54:29.414Z,27.31
2023-01-31T01:54:39.168Z,27.09
2023-01-31T01:54:49.228Z,27.94
2023-01-31T01:54:59.344Z,25.89
2023-01-31T01:55:09.386Z,27.68
2023-01-31T01:55:19.865Z,28.24
2023-01-31T01:55:29.596Z,29.76
2023-01-31T01:55:39.709Z,28.94
2023-01-31T01:55:49.730Z,29.98
2023-01-31T01:55:59.835Z,28.64
2023-01-31T01:56:09.899Z,28.64
2023-01-31T01:56:19.975Z,28.20
2023-01-31T01:56:30.384Z,29.01
2023-01-31T01:56:40.156Z,29.60
2023-01-31T01:56:50.222Z,28.89
2023-01-31T01:57:00.433Z,24.99
2023-01-31T01:57:10.488Z,26.38
2023-01-31T01:57:20.555Z,28.83
2023-01-31T01:57:30.667Z,30.00
2023-01-31T01:57:40.755Z,29.93
2023-01-31T01:57:50.818Z,29.93
2023-01-31T01:58:00.854Z,29.93
2023-01-31T01:58:10.909Z,29.93
2023-01-31T01:58:20.973Z,29.96
2023-01-31T01:58:31.463Z,29.96
2023-01-31T01:58:41.116Z,29.97
2023-01-31T01:58:51.180Z,29.94
2023-01-31T01:59:01.238Z,30.00
2023-01-31T01:59:11.310Z,29.75
2023-01-31T01:59:21.362Z,30.17
2023-01-31T01:59:31.418Z,30.11
2023-01-31T01:59:41.525Z,30.07
2023-01-31T01:59:51.581Z,29.40
2023-01-31T02:00:01.642Z,29.95
2023-01-31T02:00:11.825Z,28.67
2023-01-31T02:00:21.852Z,30.09
2023-01-31T02:00:31.919Z,29.99
2023-01-31T02:00:42.110Z,30.18
2023-01-31T02:00:52.273Z,30.51
2023-01-31T02:01:02.249Z,28.83
2023-01-31T02:01:12.361Z,29.93
2023-01-31T02:01:22.517Z,29.01
2023-01-31T02:01:32.448Z,29.76
2023-01-31T02:01:42.680Z,29.34
2023-01-31T02:01:52.918Z,29.93
2023-01-31T02:02:02.831Z,30.63
2023-01-31T02:02:13.077Z,30.16
2023-01-31T02:02:23.122Z,30.13
2023-01-31T02:02:33.179Z,27.66
2023-01-31T02:02:43.278Z,30.26
2023-01-31T02:02:53.305Z,30.85
2023-01-31T02:03:03.377Z,30.28
2023-01-31T02:03:13.518Z,28.95
2023-01-31T02:03:23.576Z,28.24
2023-01-31T02:03:33.642Z,29.65
2023-01-31T02:03:43.782Z,25.25
2023-01-31T02:03:53.838Z,28.00
2023-01-31T02:04:03.908Z,27.04
2023-01-31T02:04:14.065Z,29.51
2023-01-31T02:04:24.136Z,27.07
2023-01-31T02:04:34.193Z,27.97
2023-01-31T02:04:44.348Z,28.10
2023-01-31T02:04:54.408Z,27.88
2023-01-31T02:05:04.470Z,27.12
2023-01-31T02:05:14.655Z,26.27
2023-01-31T02:05:24.711Z,25.86
2023-01-31T02:05:34.798Z,26.83
2023-01-31T02:05:44.939Z,26.70
2023-01-31T02:05:54.994Z,26.70
2023-01-31T02:06:05.067Z,26.41
2023-01-31T02:06:15.235Z,25.45
2023-01-31T02:06:25.848Z,27.56
2023-01-31T02:06:35.988Z,28.73
2023-01-31T02:06:45.522Z,28.79
2023-01-31T02:06:55.583Z,30.28
2023-01-31T02:07:05.646Z,29.75
2023-01-31T02:07:15.758Z,28.81
2023-01-31T02:07:25.816Z,27.78
2023-01-31T02:07:36.008Z,27.91
2023-01-31T02:07:46.077Z,25.93
2023-01-31T02:07:56.083Z,27.26
2023-01-31T02:08:06.152Z,28.21
2023-01-31T02:08:16.380Z,29.74
2023-01-31T02:08:26.538Z,30.27
2023-01-31T02:08:36.499Z,27.49
2023-01-31T02:08:46.596Z,27.02
2023-01-31T02:08:56.675Z,28.34
2023-01-31T02:09:06.735Z,26.26
2023-01-31T02:09:16.877Z,26.83
2023-01-31T02:09:26.947Z,25.00
2023-01-31T02:09:37.009Z,28.51
2023-01-31T02:09:47.152Z,26.36
2023-01-31T02:09:57.215Z,26.42